Time;durP1;ratioP1;P1;durP2;ratioP2;P2;SDS_P1;SDS_P2;PMS_P1;PMS_P2;Temp;Humidity;BMP_temperature;BMP_pressure;BME280_temperature;BME280_humidity;BME280_pressure;Samples;Min_cycle;Max_cycle;Signal;HPM_P1;HPM_P2
2023/02/13 00:01:34;;;;;;;;;;;;;;;;;;4419546;32;20330;-78
2023/02/13 00:03:59;;;;;;;;;;;;;;;;;;4420417;32;19941;-78
2023/02/13 00:06:24;;;;;;;;;;;;;;;;;;4421176;32;20339;-76
2023/02/13 00:08:49;;;;;;;;;;;;;;;;;;4423141;32;19933;-76
2023/02/13 00:11:14;;;;;;;;;;;;;;;;;;4425064;32;19948;-76
2023/02/13 00:13:39;;;;;;;;;;;;;;;;;;4423098;32;19945;-77
2023/02/13 00:16:04;;;;;;;;;;;;;;;;;;4424214;32;19955;-77
2023/02/13 00:18:30;;;;;;;;;;;;;;;;;;4424437;32;19945;-77
2023/02/13 00:20:55;;;;;;;;;;;;;;;;;;4424224;32;20317;-77
2023/02/13 00:23:20;;;;;;;;;;;;;;;;;;4423949;32;19937;-77
2023/02/13 00:25:45;;;;;;;;;;;;;;;;;;4423958;32;20015;-77
2023/02/13 00:28:10;;;;;;;;;;;;;;;;;;4422161;32;19937;-77
2023/02/13 00:30:35;;;;;;;;;;;;;;;;;;4423822;32;19941;-76
2023/02/13 00:33:00;;;;;;;;;;;;;;;;;;4423438;32;20314;-77
2023/02/13 00:35:25;;;;;;;;;;;;;;;;;;4425133;32;19937;-77
2023/02/13 00:37:50;;;;;;;;;;;;;;;;;;4423400;32;19997;-76
2023/02/13 00:40:15;;;;;;;;;;;;;;;;;;4423905;32;19949;-76
2023/02/13 00:42:40;;;;;;;;;;;;;;;;;;4423970;32;19944;-76
2023/02/13 00:45:06;;;;;;;;;;;;;;;;;;4422411;32;19941;-76
2023/02/13 00:47:31;;;;;;;;;;;;;;;;;;4425132;32;19991;-76
2023/02/13 00:49:56;;;;;;;;;;;;;;;;;;4422613;32;20254;-77
2023/02/13 00:52:21;;;;;;;;;;;;;;;;;;4428915;32;19949;-77
2023/02/13 00:54:46;;;;;;;;;;;;;;;;;;4426229;32;19948;-77
2023/02/13 00:57:11;;;;;;;;;;;;;;;;;;4421604;32;19933;-77
2023/02/13 00:59:36;;;;;;;;;;;;;;;;;;4424034;32;19933;-77
2023/02/13 01:02:01;;;;;;;;;;;;;;;;;;4422923;32;19933;-76
2023/02/13 01:04:26;;;;;;;;;;;;;;;;;;4422775;32;19941;-77
2023/02/13 01:06:52;;;;;;;;;;;;;;;;;;4422751;32;19967;-77
2023/02/13 01:09:17;;;;;;;;;;;;;;;;;;4423106;32;20131;-77
2023/02/13 01:11:42;;;;;;;;;;;;;;;;;;4422615;32;19937;-77
2023/02/13 01:14:07;;;;;;;;;;;;;;;;;;4424093;32;19947;-77
2023/02/13 01:16:32;;;;;;;;;;;;;;;;;;4424096;32;19984;-77
2023/02/13 01:18:57;;;;;;;;;;;;;;;;;;4421693;32;20009;-76
2023/02/13 01:21:23;;;;;;;;;;;;;;;;;;4422931;32;19940;-77
2023/02/13 01:23:48;;;;;;;;;;;;;;;;;;4424070;32;19981;-76
2023/02/13 01:26:13;;;;;;;;;;;;;;;;;;4422572;32;19945;-76
2023/02/13 01:28:38;;;;;;;;;;;;;;;;;;4422859;32;20022;-77
2023/02/13 01:31:03;;;;;;;;;;;;;;;;;;4421477;32;19936;-77
2023/02/13 01:33:29;;;;;;;;;;;;;;;;;;4421601;32;20006;-76
2023/02/13 01:35:54;;;;;;;;;;;;;;;;;;4423253;32;20362;-76
2023/02/13 01:38:19;;;;;;;;;;;;;;;;;;4424091;32;19933;-77
2023/02/13 01:40:44;;;;;;;;;;;;;;;;;;4423586;32;19961;-77
2023/02/13 01:43:09;;;;;;;;;;;;;;;;;;4422689;32;19970;-77
2023/02/13 01:45:34;;;;;;;;;;;;;;;;;;4421153;32;20338;-77
2023/02/13 01:47:59;;;;;;;;;;;;;;;;;;4422706;32;19937;-77
2023/02/13 01:50:24;;;;;;;;;;;;;;;;;;4423943;32;19972;-77
2023/02/13 01:52:49;;;;;;;;;;;;;;;;;;4423168;32;19948;-77
2023/02/13 01:55:15;;;;;;;;;;;;;;;;;;4422933;32;19937;-77
2023/02/13 01:57:40;;;;;;;;;;;;;;;;;;4422376;32;19987;-77
2023/02/13 02:00:05;;;;;;;;;;;;;;;;;;4422535;32;19989;-77
2023/02/13 02:02:30;;;;;;;;;;;;;;;;;;4422018;32;19957;-77
2023/02/13 02:04:55;;;;;;;;;;;;;;;;;;4422334;32;19944;-76
2023/02/13 02:07:20;;;;;;;;;;;;;;;;;;4422886;32;19984;-76
2023/02/13 02:09:45;;;;;;;;;;;;;;;;;;4425123;32;19952;-76
2023/02/13 02:12:10;;;;;;;;;;;;;;;;;;4427708;32;19937;-76
2023/02/13 02:14:35;;;;;;;;;;;;;;;;;;4422798;32;19937;-77
2023/02/13 02:17:01;;;;;;;;;;;;;;;;;;4423375;32;19933;-77
2023/02/13 02:19:26;;;;;;;;;;;;;;;;;;4420994;32;19956;-77
2023/02/13 02:21:51;;;;;;;;;;;;;;;;;;4421050;32;19948;-77
2023/02/13 02:24:16;;;;;;;;;;;;;;;;;;4422169;32;20273;-77
2023/02/13 02:26:41;;;;;;;;;;;;;;;;;;4422115;32;19933;-77
2023/02/13 02:29:06;;;;;;;;;;;;;;;;;;4422112;32;19933;-77
2023/02/13 02:31:31;;;;;;;;;;;;;;;;;;4420760;32;19965;-78
2023/02/13 02:33:56;;;;;;;;;;;;;;;;;;4421618;32;19941;-77
2023/02/13 02:36:22;;;;;;;;;;;;;;;;;;4422413;32;19937;-76
2023/02/13 02:38:47;;;;;;;;;;;;;;;;;;4420533;32;20379;-77
2023/02/13 02:41:40;;;;;;;;;;;;;;;;;;4423732;32;19929;-76
2023/02/13 02:43:57;;;;;;;;;;;;;;;;;;4421919;32;19976;-77
2023/02/13 02:46:22;;;;;;;;;;;;;;;;;;4421855;32;19992;-76
2023/02/13 02:51:31;;;;;;;;;;;;;;;;;;4422142;32;19939;-77
2023/02/13 02:53:56;;;;;;;;;;;;;;;;;;4421462;32;19976;-76
2023/02/13 02:56:21;;;;;;;;;;;;;;;;;;4419804;32;19992;-76
2023/02/13 03:06:58;;;;;;;;;;;;;;;;;;4423478;32;19986;-76
2023/02/13 03:14:51;;;;;;;;;;;;;;;;;;4420901;32;19971;-77
2023/02/13 03:22:44;;;;;;;;;;;;;;;;;;4422469;32;19952;-77
2023/02/13 03:25:09;;;;;;;;;;;;;;;;;;4423499;32;19937;-76
2023/02/13 03:30:18;;;;;;;;;;;;;;;;;;4429729;32;19960;-78
2023/02/13 03:32:43;;;;;;;;;;;;;;;;;;4428056;32;20302;-77
2023/02/13 03:37:56;;;;;;;;;;;;;;;;;;4420489;32;19940;-77
2023/02/13 03:40:21;;;;;;;;;;;;;;;;;;4421848;32;20314;-77
2023/02/13 03:42:46;;;;;;;;;;;;;;;;;;4423496;32;20291;-76
2023/02/13 03:47:55;;;;;;;;;;;;;;;;;;4426421;32;19944;-77
2023/02/13 03:50:20;;;;;;;;;;;;;;;;;;4427116;32;19941;-76
2023/02/13 03:52:45;;;;;;;;;;;;;;;;;;4424857;32;19937;-77
2023/02/13 04:00:41;;;;;;;;;;;;;;;;;;4426176;32;19963;-77
2023/02/13 04:03:07;;;;;;;;;;;;;;;;;;4427369;32;19933;-77
2023/02/13 04:05:32;;;;;;;;;;;;;;;;;;4424429;32;19941;-77
2023/02/13 04:07:57;;;;;;;;;;;;;;;;;;4427041;32;19965;-77
2023/02/13 04:10:22;;;;;;;;;;;;;;;;;;4424351;32;20247;-75
2023/02/13 04:12:48;;;;;;;;;;;;;;;;;;4423990;32;20060;-76
2023/02/13 04:15:13;;;;;;;;;;;;;;;;;;4425844;32;19965;-77
2023/02/13 04:17:38;;;;;;;;;;;;;;;;;;4425851;32;20025;-76
2023/02/13 04:20:03;;;;;;;;;;;;;;;;;;4425956;32;19945;-76
2023/02/13 04:22:28;;;;;;;;;;;;;;;;;;4425201;32;20370;-76
2023/02/13 04:24:53;;;;;;;;;;;;;;;;;;4424325;32;20360;-76
2023/02/13 04:27:18;;;;;;;;;;;;;;;;;;4426876;32;20276;-77
2023/02/13 04:29:43;;;;;;;;;;;;;;;;;;4425536;32;19933;-76
2023/02/13 04:32:08;;;;;;;;;;;;;;;;;;4425727;32;19933;-77
2023/02/13 04:34:34;;;;;;;;;;;;;;;;;;4425490;32;19944;-76
2023/02/13 04:36:59;;;;;;;;;;;;;;;;;;4426315;32;20002;-76
2023/02/13 04:39:24;;;;;;;;;;;;;;;;;;4425496;32;20303;-76
2023/02/13 04:41:49;;;;;;;;;;;;;;;;;;4425433;32;19941;-76
2023/02/13 04:44:14;;;;;;;;;;;;;;;;;;4426055;32;19951;-76
2023/02/13 04:46:39;;;;;;;;;;;;;;;;;;4425158;32;19984;-76
2023/02/13 04:49:04;;;;;;;;;;;;;;;;;;4426955;32;19937;-76
2023/02/13 04:51:29;;;;;;;;;;;;;;;;;;4427760;32;20004;-76
2023/02/13 04:53:54;;;;;;;;;;;;;;;;;;4426492;32;20345;-76
2023/02/13 04:56:20;;;;;;;;;;;;;;;;;;4422787;32;19933;-76
2023/02/13 04:58:45;;;;;;;;;;;;;;;;;;4422649;32;20299;-76
2023/02/13 05:01:10;;;;;;;;;;;;;;;;;;4422585;32;20281;-76
2023/02/13 05:03:35;;;;;;;;;;;;;;;;;;4421506;32;20337;-76
2023/02/13 05:06:00;;;;;;;;;;;;;;;;;;4423982;32;19952;-75
2023/02/13 05:08:25;;;;;;;;;;;;;;;;;;4424032;32;19975;-76
2023/02/13 05:10:50;;;;;;;;;;;;;;;;;;4424576;32;19941;-76
2023/02/13 05:13:15;;;;;;;;;;;;;;;;;;4422758;32;19967;-77
2023/02/13 05:15:40;;;;;;;;;;;;;;;;;;4421725;32;19941;-77
2023/02/13 05:18:05;;;;;;;;;;;;;;;;;;4423204;32;20261;-76
2023/02/13 05:20:31;;;;;;;;;;;;;;;;;;4421840;32;19945;-76
2023/02/13 05:25:39;;;;;;;;;;;;;;;;;;4423332;32;19939;-76
2023/02/13 05:29:17;;;;;;;;;;;;;;;;;;4422449;32;20246;-76
2023/02/13 05:30:50;;;;;;;;;;;;;;;;;;4423008;32;19929;-76
2023/02/13 05:33:15;;;;;;;;;;;;;;;;;;4421960;32;19953;-76
2023/02/13 05:35:40;;;;;;;;;;;;;;;;;;4423084;32;19956;-76
2023/02/13 05:38:05;;;;;;;;;;;;;;;;;;4422363;32;19933;-76
2023/02/13 05:40:30;;;;;;;;;;;;;;;;;;4423674;32;20001;-76
2023/02/13 05:42:55;;;;;;;;;;;;;;;;;;4421096;32;19937;-76
2023/02/13 05:45:20;;;;;;;;;;;;;;;;;;4422866;32;19960;-76
2023/02/13 05:47:45;;;;;;;;;;;;;;;;;;4420977;32;19952;-75
2023/02/13 05:50:10;;;;;;;;;;;;;;;;;;4422742;32;20228;-75
2023/02/13 05:52:36;;;;;;;;;;;;;;;;;;4420911;32;19937;-76
2023/02/13 05:55:01;;;;;;;;;;;;;;;;;;4422516;32;20000;-75
2023/02/13 05:57:26;;;;;;;;;;;;;;;;;;4421355;32;19953;-76
2023/02/13 05:59:51;;;;;;;;;;;;;;;;;;4422904;32;19933;-75
2023/02/13 06:02:16;;;;;;;;;;;;;;;;;;4421225;32;20338;-75
2023/02/13 06:04:41;;;;;;;;;;;;;;;;;;4423434;32;19933;-76
2023/02/13 06:07:07;;;;;;;;;;;;;;;;;;4422230;32;20297;-76
2023/02/13 06:09:32;;;;;;;;;;;;;;;;;;4424186;32;19944;-76
2023/02/13 06:11:57;;;;;;;;;;;;;;;;;;4423747;32;20026;-76
2023/02/13 06:14:22;;;;;;;;;;;;;;;;;;4422271;32;19941;-75
2023/02/13 06:16:47;;;;;;;;;;;;;;;;;;4422752;32;19933;-75
2023/02/13 06:19:12;;;;;;;;;;;;;;;;;;4421700;32;19933;-75
2023/02/13 06:21:37;;;;;;;;;;;;;;;;;;4421954;32;19980;-76
2023/02/13 06:24:02;;;;;;;;;;;;;;;;;;4422342;32;19941;-75
2023/02/13 06:26:28;;;;;;;;;;;;;;;;;;4422834;32;19972;-76
2023/02/13 06:28:53;;;;;;;;;;;;;;;;;;4422639;32;19945;-76
2023/02/13 06:31:18;;;;;;;;;;;;;;;;;;4421986;32;19998;-76
2023/02/13 06:33:43;;;;;;;;;;;;;;;;;;4421660;32;19989;-77
2023/02/13 06:36:08;;;;;;;;;;;;;;;;;;4420418;32;19992;-76
2023/02/13 06:38:33;;;;;;;;;;;;;;;;;;4421526;32;20257;-75
2023/02/13 06:40:58;;;;;;;;;;;;;;;;;;4419843;32;19937;-74
2023/02/13 06:43:23;;;;;;;;;;;;;;;;;;4421501;32;19953;-75
2023/02/13 06:45:50;;;;;;;;;;;;;;;;;;4419969;32;19936;-74
2023/02/13 06:48:15;;;;;;;;;;;;;;;;;;4421207;32;20005;-75
2023/02/13 06:50:40;;;;;;;;;;;;;;;;;;4421804;32;20021;-76
2023/02/13 06:53:05;;;;;;;;;;;;;;;;;;4420286;32;20019;-75
2023/02/13 06:55:31;;;;;;;;;;;;;;;;;;4422618;32;20250;-75
2023/02/13 06:57:56;;;;;;;;;;;;;;;;;;4421091;32;19947;-75
2023/02/13 07:00:21;;;;;;;;;;;;;;;;;;4420998;32;20345;-75
2023/02/13 07:02:46;;;;;;;;;;;;;;;;;;4420126;32;20383;-76
2023/02/13 07:05:11;;;;;;;;;;;;;;;;;;4421458;32;19989;-76
2023/02/13 07:07:36;;;;;;;;;;;;;;;;;;4422072;32;20356;-75
2023/02/13 07:10:02;;;;;;;;;;;;;;;;;;4422249;32;19941;-76
2023/02/13 07:12:27;;;;;;;;;;;;;;;;;;4420402;32;19989;-78
2023/02/13 07:14:52;;;;;;;;;;;;;;;;;;4419813;32;20266;-75
2023/02/13 07:17:17;;;;;;;;;;;;;;;;;;4421353;32;20371;-76
2023/02/13 07:19:42;;;;;;;;;;;;;;;;;;4422268;32;19937;-76
2023/02/13 07:22:07;;;;;;;;;;;;;;;;;;4422474;32;19995;-76
2023/02/13 07:24:34;;;;;;;;;;;;;;;;;;4417076;32;19934;-76
2023/02/13 07:26:59;;;;;;;;;;;;;;;;;;4406070;32;19941;-78
2023/02/13 07:29:24;;;;;;;;;;;;;;;;;;4408147;32;19974;-76
2023/02/13 07:31:49;;;;;;;;;;;;;;;;;;4421965;32;20357;-77
2023/02/13 07:34:15;;;;;;;;;;;;;;;;;;4413891;32;19938;-77
2023/02/13 07:36:40;;;;;;;;;;;;;;;;;;4407138;32;20358;-77
2023/02/13 07:39:05;;;;;;;;;;;;;;;;;;4405936;32;20294;-75
2023/02/13 07:41:30;;;;;;;;;;;;;;;;;;4404291;32;19933;-77
2023/02/13 07:43:55;;;;;;;;;;;;;;;;;;4406644;32;19982;-75
2023/02/13 07:46:20;;;;;;;;;;;;;;;;;;4405671;32;19933;-75
2023/02/13 07:48:45;;;;;;;;;;;;;;;;;;4405300;32;19981;-75
2023/02/13 07:51:10;;;;;;;;;;;;;;;;;;4406963;32;19971;-76
2023/02/13 07:53:35;;;;;;;;;;;;;;;;;;4405402;32;20027;-75
2023/02/13 07:56:00;;;;;;;;;;;;;;;;;;4407129;32;19945;-75
2023/02/13 07:58:26;;;;;;;;;;;;;;;;;;4405212;32;19949;-75
2023/02/13 08:00:51;;;;;;;;;;;;;;;;;;4405450;32;19953;-75
2023/02/13 08:03:16;;;;;;;;;;;;;;;;;;4403837;32;19945;-75
2023/02/13 08:05:41;;;;;;;;;;;;;;;;;;4403458;32;19971;-75
2023/02/13 08:08:06;;;;;;;;;;;;;;;;;;4405398;32;19930;-75
2023/02/13 08:13:15;;;;;;;;;;;;;;;;;;4405210;32;19949;-76
2023/02/13 08:15:43;;;;;;;;;;;;;;;;;;4404267;32;19938;-75
2023/02/13 08:18:08;;;;;;;;;;;;;;;;;;4410145;32;20001;-75
2023/02/13 08:20:33;;;;;;;;;;;;;;;;;;4419337;32;19941;-75
2023/02/13 08:22:58;;;;;;;;;;;;;;;;;;4411947;32;20318;-75
2023/02/13 08:25:23;;;;;;;;;;;;;;;;;;4403950;32;19938;-74
2023/02/13 08:27:48;;;;;;;;;;;;;;;;;;4405745;32;20290;-75
2023/02/13 08:30:14;;;;;;;;;;;;;;;;;;4406888;32;20334;-75
2023/02/13 08:32:39;;;;;;;;;;;;;;;;;;4407285;32;19938;-73
2023/02/13 08:35:04;;;;;;;;;;;;;;;;;;4407812;32;19945;-74
2023/02/13 08:37:29;;;;;;;;;;;;;;;;;;4407933;32;20353;-74
2023/02/13 08:39:55;;;;;;;;;;;;;;;;;;4408020;32;20270;-75
2023/02/13 08:42:20;;;;;;;;;;;;;;;;;;4409129;32;19962;-75
2023/02/13 08:44:45;;;;;;;;;;;;;;;;;;4406702;32;20255;-75
2023/02/13 08:47:10;;;;;;;;;;;;;;;;;;4414003;32;19937;-75
2023/02/13 08:49:35;;;;;;;;;;;;;;;;;;4425194;32;20263;-75
2023/02/13 08:52:00;;;;;;;;;;;;;;;;;;4423622;32;19993;-74
2023/02/13 08:54:26;;;;;;;;;;;;;;;;;;4423322;32;19941;-74
2023/02/13 08:56:51;;;;;;;;;;;;;;;;;;4424452;32;19981;-74
2023/02/13 08:59:16;;;;;;;;;;;;;;;;;;4424734;32;20003;-75
2023/02/13 09:01:42;;;;;;;;;;;;;;;;;;4423362;32;19937;-74
2023/02/13 09:04:07;;;;;;;;;;;;;;;;;;4423058;32;19969;-74
2023/02/13 09:06:32;;;;;;;;;;;;;;;;;;4422453;32;19983;-74
2023/02/13 09:08:57;;;;;;;;;;;;;;;;;;4422741;32;19989;-74
2023/02/13 09:11:22;;;;;;;;;;;;;;;;;;4422429;32;20367;-75
2023/02/13 09:13:47;;;;;;;;;;;;;;;;;;4422138;32;19949;-74
2023/02/13 09:16:12;;;;;;;;;;;;;;;;;;4422050;32;20371;-75
2023/02/13 09:18:37;;;;;;;;;;;;;;;;;;4423400;32;20039;-76
2023/02/13 09:21:03;;;;;;;;;;;;;;;;;;4422339;32;19933;-76
2023/02/13 09:23:28;;;;;;;;;;;;;;;;;;4421028;32;19973;-74
2023/02/13 09:25:53;;;;;;;;;;;;;;;;;;4422441;32;19947;-76
2023/02/13 09:28:18;;;;;;;;;;;;;;;;;;4421179;32;19988;-75
2023/02/13 09:30:43;;;;;;;;;;;;;;;;;;4420884;32;19944;-74
2023/02/13 09:33:08;;;;;;;;;;;;;;;;;;4422665;32;19949;-75
2023/02/13 09:35:33;;;;;;;;;;;;;;;;;;4423593;32;19933;-76
2023/02/13 09:37:58;;;;;;;;;;;;;;;;;;4422461;32;19975;-75
2023/02/13 09:40:23;;;;;;;;;;;;;;;;;;4420483;32;19937;-74
2023/02/13 09:42:49;;;;;;;;;;;;;;;;;;4420699;32;19948;-74
2023/02/13 09:45:14;;;;;;;;;;;;;;;;;;4421818;32;19948;-74
2023/02/13 09:47:39;;;;;;;;;;;;;;;;;;4421139;32;20376;-75
2023/02/13 09:50:04;;;;;;;;;;;;;;;;;;4422095;32;19933;-74
2023/02/13 09:52:29;;;;;;;;;;;;;;;;;;4422500;32;19997;-74
2023/02/13 09:54:54;;;;;;;;;;;;;;;;;;4420379;32;20323;-75
2023/02/13 09:57:19;;;;;;;;;;;;;;;;;;4422426;32;19953;-74
2023/02/13 09:59:44;;;;;;;;;;;;;;;;;;4422648;32;19974;-74
2023/02/13 10:02:09;;;;;;;;;;;;;;;;;;4423573;32;19933;-74
2023/02/13 10:04:35;;;;;;;;;;;;;;;;;;4423107;32;19974;-75
2023/02/13 10:07:00;;;;;;;;;;;;;;;;;;4421058;32;19937;-74
2023/02/13 10:09:25;;;;;;;;;;;;;;;;;;4424991;32;19993;-75
2023/02/13 10:11:50;;;;;;;;;;;;;;;;;;4421469;32;19937;-74
2023/02/13 10:14:16;;;;;;;;;;;;;;;;;;4420329;32;19956;-75
2023/02/13 10:16:41;;;;;;;;;;;;;;;;;;4422396;32;19940;-73
2023/02/13 10:19:06;;;;;;;;;;;;;;;;;;4421942;32;19941;-75
2023/02/13 10:21:32;;;;;;;;;;;;;;;;;;4421716;32;19951;-73
2023/02/13 10:23:57;;;;;;;;;;;;;;;;;;4419925;32;19937;-74
2023/02/13 10:26:22;;;;;;;;;;;;;;;;;;4406925;32;19953;-75
2023/02/13 10:30:03;;;;;;;;;;;;;;;;;;4407227;32;19977;-75
2023/02/13 10:31:32;;;;;;;;;;;;;;;;;;4406543;32;19941;-74
2023/02/13 10:33:57;;;;;;;;;;;;;;;;;;4407332;32;19953;-73
2023/02/13 10:36:23;;;;;;;;;;;;;;;;;;4405083;32;19971;-74
2023/02/13 10:38:48;;;;;;;;;;;;;;;;;;4406092;32;19957;-74
2023/02/13 10:41:13;;;;;;;;;;;;;;;;;;4407773;32;20383;-74
2023/02/13 10:43:39;;;;;;;;;;;;;;;;;;4405004;32;19965;-74
2023/02/13 10:46:04;;;;;;;;;;;;;;;;;;4418388;32;19929;-75
2023/02/13 10:48:29;;;;;;;;;;;;;;;;;;4420917;32;20220;-74
2023/02/13 10:50:54;;;;;;;;;;;;;;;;;;4420810;32;19953;-75
2023/02/13 10:53:19;;;;;;;;;;;;;;;;;;4420717;32;20298;-75
2023/02/13 10:55:44;;;;;;;;;;;;;;;;;;4421662;32;19937;-74
2023/02/13 10:58:09;;;;;;;;;;;;;;;;;;4421359;32;19937;-73
2023/02/13 11:00:35;;;;;;;;;;;;;;;;;;4422102;32;19948;-74
2023/02/13 11:03:00;;;;;;;;;;;;;;;;;;4422535;32;19933;-74
2023/02/13 11:05:25;;;;;;;;;;;;;;;;;;4420840;32;19989;-74
2023/02/13 11:07:50;;;;;;;;;;;;;;;;;;4422578;32;20282;-75
2023/02/13 11:10:15;;;;;;;;;;;;;;;;;;4419696;32;19937;-74
2023/02/13 11:12:40;;;;;;;;;;;;;;;;;;4421543;32;19947;-74
2023/02/13 11:15:05;;;;;;;;;;;;;;;;;;4420820;32;19941;-74
2023/02/13 11:17:31;;;;;;;;;;;;;;;;;;4421946;32;19985;-74
2023/02/13 11:19:56;;;;;;;;;;;;;;;;;;4422280;32;20076;-75
2023/02/13 11:22:21;;;;;;;;;;;;;;;;;;4420927;32;19967;-75
2023/02/13 11:24:46;;;;;;;;;;;;;;;;;;4419999;32;19937;-74
2023/02/13 11:27:12;;;;;;;;;;;;;;;;;;4421192;32;19932;-75
2023/02/13 11:29:37;;;;;;;;;;;;;;;;;;4421186;32;19929;-74
2023/02/13 11:32:02;;;;;;;;;;;;;;;;;;4421755;32;19945;-74
2023/02/13 11:34:28;;;;;;;;;;;;;;;;;;4420917;32;19972;-75
2023/02/13 11:36:53;;;;;;;;;;;;;;;;;;4419372;32;19945;-74
2023/02/13 11:39:18;;;;;;;;;;;;;;;;;;4421382;32;19980;-75
2023/02/13 11:41:43;;;;;;;;;;;;;;;;;;4420786;32;19933;-74
2023/02/13 11:44:08;;;;;;;;;;;;;;;;;;4420120;32;20241;-75
2023/02/13 11:46:33;;;;;;;;;;;;;;;;;;4421019;32;20013;-74
2023/02/13 11:48:58;;;;;;;;;;;;;;;;;;4421754;32;20013;-74
2023/02/13 11:51:24;;;;;;;;;;;;;;;;;;4420798;32;19933;-74
2023/02/13 11:53:49;;;;;;;;;;;;;;;;;;4421150;32;19952;-74
2023/02/13 11:56:14;;;;;;;;;;;;;;;;;;4421573;32;19933;-73
2023/02/13 11:58:39;;;;;;;;;;;;;;;;;;4420577;32;20341;-75
2023/02/13 12:01:04;;;;;;;;;;;;;;;;;;4419318;32;19961;-75
2023/02/13 12:03:29;;;;;;;;;;;;;;;;;;4412405;32;19986;-75
2023/02/13 12:05:54;;;;;;;;;;;;;;;;;;4416410;32;19955;-75
2023/02/13 12:08:19;;;;;;;;;;;;;;;;;;4413542;32;20303;-75
2023/02/13 12:10:44;;;;;;;;;;;;;;;;;;4412937;32;19996;-75
2023/02/13 12:13:09;;;;;;;;;;;;;;;;;;4411077;32;20012;-74
2023/02/13 12:15:35;;;;;;;;;;;;;;;;;;4414822;32;19933;-74
2023/02/13 12:18:00;;;;;;;;;;;;;;;;;;4415155;32;19958;-74
2023/02/13 12:20:25;;;;;;;;;;;;;;;;;;4416291;32;19952;-74
2023/02/13 12:22:50;;;;;;;;;;;;;;;;;;4416674;32;19941;-73
2023/02/13 12:25:15;;;;;;;;;;;;;;;;;;4414024;32;19953;-75
2023/02/13 12:27:41;;;;;;;;;;;;;;;;;;4416685;32;19937;-74
2023/02/13 12:30:06;;;;;;;;;;;;;;;;;;4414367;32;19964;-74
2023/02/13 12:32:32;;;;;;;;;;;;;;;;;;4416277;32;19946;-75
2023/02/13 12:34:57;;;;;;;;;;;;;;;;;;4412894;32;20408;-75
2023/02/13 12:37:22;;;;;;;;;;;;;;;;;;4420001;32;19945;-75
2023/02/13 12:39:47;;;;;;;;;;;;;;;;;;4410311;32;19941;-74
2023/02/13 12:42:12;;;;;;;;;;;;;;;;;;4408636;32;19949;-74
2023/02/13 12:44:37;;;;;;;;;;;;;;;;;;4407605;32;19934;-75
2023/02/13 12:47:02;;;;;;;;;;;;;;;;;;4412125;32;19941;-75
2023/02/13 12:49:27;;;;;;;;;;;;;;;;;;4409912;32;20356;-76
2023/02/13 12:51:52;;;;;;;;;;;;;;;;;;4415592;32;19956;-74
2023/02/13 12:54:18;;;;;;;;;;;;;;;;;;4408949;32;19961;-75
2023/02/13 12:56:43;;;;;;;;;;;;;;;;;;4408944;32;19933;-75
2023/02/13 12:59:08;;;;;;;;;;;;;;;;;;4411637;32;20013;-75
2023/02/13 13:01:33;;;;;;;;;;;;;;;;;;4422982;32;19941;-75
2023/02/13 13:03:58;;;;;;;;;;;;;;;;;;4422898;32;20043;-74
2023/02/13 13:06:23;;;;;;;;;;;;;;;;;;4421736;32;19970;-74
2023/02/13 13:08:48;;;;;;;;;;;;;;;;;;4423243;32;19960;-75
2023/02/13 13:11:13;;;;;;;;;;;;;;;;;;4423012;32;19937;-75
2023/02/13 13:13:38;;;;;;;;;;;;;;;;;;4421249;32;19980;-75
2023/02/13 13:16:03;;;;;;;;;;;;;;;;;;4421932;32;19944;-75
2023/02/13 13:18:29;;;;;;;;;;;;;;;;;;4423159;32;19993;-74
2023/02/13 13:20:54;;;;;;;;;;;;;;;;;;4422580;32;19984;-75
2023/02/13 13:23:19;;;;;;;;;;;;;;;;;;4423431;32;19955;-75
2023/02/13 13:25:44;;;;;;;;;;;;;;;;;;4424406;32;19933;-75
2023/02/13 13:28:09;;;;;;;;;;;;;;;;;;4422766;32;19933;-74
2023/02/13 13:30:34;;;;;;;;;;;;;;;;;;4422264;32;19953;-74
2023/02/13 13:32:59;;;;;;;;;;;;;;;;;;4423902;32;19948;-74
2023/02/13 13:35:25;;;;;;;;;;;;;;;;;;4422228;32;19945;-74
2023/02/13 13:38:01;;;;;;;;;;;;;;;;;;4423002;32;20303;-74
2023/02/13 13:40:26;;;;;;;;;;;;;;;;;;4420806;32;20345;-76
2023/02/13 13:42:51;;;;;;;;;;;;;;;;;;4423724;32;20000;-75
2023/02/13 13:45:16;;;;;;;;;;;;;;;;;;4422058;32;19955;-75
2023/02/13 13:47:41;;;;;;;;;;;;;;;;;;4424108;32;19982;-75
2023/02/13 13:50:06;;;;;;;;;;;;;;;;;;4421755;32;19937;-74
2023/02/13 13:52:32;;;;;;;;;;;;;;;;;;4422995;32;19933;-74
2023/02/13 13:54:59;;;;;;;;;;;;;;;;;;4421761;32;19974;-75
2023/02/13 13:57:24;;;;;;;;;;;;;;;;;;4422028;32;19996;-74
2023/02/13 13:59:50;;;;;;;;;;;;;;;;;;4422451;32;19934;-74
2023/02/13 14:02:15;;;;;;;;;;;;;;;;;;4423020;32;19937;-74
2023/02/13 14:04:42;;;;;;;;;;;;;;;;;;4421228;32;19933;-74
2023/02/13 14:07:07;;;;;;;;;;;;;;;;;;4420159;32;20345;-75
2023/02/13 14:09:32;;;;;;;;;;;;;;;;;;4422121;32;20010;-76
2023/02/13 14:12:01;;;;;;;;;;;;;;;;;;4421793;32;19960;-74
2023/02/13 14:14:26;;;;;;;;;;;;;;;;;;4421705;32;19972;-74
2023/02/13 14:16:51;;;;;;;;;;;;;;;;;;4422267;32;19937;-74
2023/02/13 14:19:16;;;;;;;;;;;;;;;;;;4422158;32;20326;-74
2023/02/13 14:21:41;;;;;;;;;;;;;;;;;;4421573;32;19933;-76
2023/02/13 14:24:06;;;;;;;;;;;;;;;;;;4421500;32;19945;-74
2023/02/13 14:26:31;;;;;;;;;;;;;;;;;;4420751;32;19971;-75
2023/02/13 14:28:57;;;;;;;;;;;;;;;;;;4418248;32;19992;-74
2023/02/13 14:31:22;;;;;;;;;;;;;;;;;;4421342;32;19996;-74
2023/02/13 14:33:47;;;;;;;;;;;;;;;;;;4422555;32;19938;-74
2023/02/13 14:36:12;;;;;;;;;;;;;;;;;;4422036;32;19951;-75
2023/02/13 14:38:37;;;;;;;;;;;;;;;;;;4422586;32;19970;-75
2023/02/13 14:41:02;;;;;;;;;;;;;;;;;;4421295;32;19937;-75
2023/02/13 14:43:28;;;;;;;;;;;;;;;;;;4420946;32;20358;-75
2023/02/13 14:45:53;;;;;;;;;;;;;;;;;;4422309;32;20268;-75
2023/02/13 14:48:18;;;;;;;;;;;;;;;;;;4422388;32;19946;-76
2023/02/13 14:50:44;;;;;;;;;;;;;;;;;;4421139;32;19938;-75
2023/02/13 14:53:09;;;;;;;;;;;;;;;;;;4422285;32;19937;-75
2023/02/13 14:55:34;;;;;;;;;;;;;;;;;;4421359;32;19979;-75
2023/02/13 14:58:04;;;;;;;;;;;;;;;;;;4423816;32;20299;-76
2023/02/13 15:00:29;;;;;;;;;;;;;;;;;;4421416;32;19933;-75
2023/02/13 15:02:54;;;;;;;;;;;;;;;;;;4411365;32;19936;-75
2023/02/13 15:05:19;;;;;;;;;;;;;;;;;;4419687;32;19941;-74
2023/02/13 15:07:44;;;;;;;;;;;;;;;;;;4419077;32;19961;-75
2023/02/13 15:10:09;;;;;;;;;;;;;;;;;;4411201;32;19930;-75
2023/02/13 15:12:34;;;;;;;;;;;;;;;;;;4405892;32;19937;-74
2023/02/13 15:15:04;;;;;;;;;;;;;;;;;;4418342;32;19974;-76
2023/02/13 15:17:29;;;;;;;;;;;;;;;;;;4421319;32;19986;-75
2023/02/13 15:19:55;;;;;;;;;;;;;;;;;;4421134;32;20002;-75
2023/02/13 15:22:20;;;;;;;;;;;;;;;;;;4421666;32;19950;-76
2023/02/13 15:24:50;;;;;;;;;;;;;;;;;;4420968;32;19945;-75
2023/02/13 15:27:15;;;;;;;;;;;;;;;;;;4420941;32;19929;-75
2023/02/13 15:29:40;;;;;;;;;;;;;;;;;;4412985;32;19981;-76
2023/02/13 15:32:05;;;;;;;;;;;;;;;;;;4406262;32;19942;-76
2023/02/13 15:34:33;;;;;;;;;;;;;;;;;;4406372;32;19944;-76
2023/02/13 15:36:58;;;;;;;;;;;;;;;;;;4405480;32;19970;-76
2023/02/13 15:39:23;;;;;;;;;;;;;;;;;;4404288;32;19993;-75
2023/02/13 15:41:51;;;;;;;;;;;;;;;;;;4405808;32;20244;-76
2023/02/13 15:44:17;;;;;;;;;;;;;;;;;;4409044;32;19937;-76
2023/02/13 15:46:43;;;;;;;;;;;;;;;;;;4411298;32;19933;-76
2023/02/13 15:49:09;;;;;;;;;;;;;;;;;;4417283;32;19982;-75
2023/02/13 15:51:34;;;;;;;;;;;;;;;;;;4418830;32;19948;-74
2023/02/13 15:53:59;;;;;;;;;;;;;;;;;;4406421;32;19960;-75
2023/02/13 15:56:24;;;;;;;;;;;;;;;;;;4418639;32;19973;-74
2023/02/13 15:58:52;;;;;;;;;;;;;;;;;;4420435;32;19933;-75
2023/02/13 16:01:17;;;;;;;;;;;;;;;;;;4416966;32;19985;-75
2023/02/13 16:03:42;;;;;;;;;;;;;;;;;;4412861;32;19952;-75
2023/02/13 16:06:08;;;;;;;;;;;;;;;;;;4404945;32;19948;-75
2023/02/13 16:08:34;;;;;;;;;;;;;;;;;;4410460;32;19937;-76
2023/02/13 16:10:59;;;;;;;;;;;;;;;;;;4418594;32;19937;-76
2023/02/13 16:13:24;;;;;;;;;;;;;;;;;;4417748;32;20038;-76
2023/02/13 16:15:51;;;;;;;;;;;;;;;;;;4408344;32;19989;-75
2023/02/13 16:18:16;;;;;;;;;;;;;;;;;;4411828;32;19982;-75
2023/02/13 16:20:41;;;;;;;;;;;;;;;;;;4405381;32;19954;-77
2023/02/13 16:23:06;;;;;;;;;;;;;;;;;;4411214;32;19975;-75
2023/02/13 16:25:31;;;;;;;;;;;;;;;;;;4410120;32;19948;-74
2023/02/13 16:27:56;;;;;;;;;;;;;;;;;;4411683;32;19936;-74
2023/02/13 16:30:21;;;;;;;;;;;;;;;;;;4410909;32;19963;-75
2023/02/13 16:32:47;;;;;;;;;;;;;;;;;;4411486;32;19949;-75
2023/02/13 16:35:12;;;;;;;;;;;;;;;;;;4411062;32;20006;-76
2023/02/13 16:37:37;;;;;;;;;;;;;;;;;;4408221;32;19957;-75
2023/02/13 16:40:02;;;;;;;;;;;;;;;;;;4411694;32;19955;-76
2023/02/13 16:42:30;;;;;;;;;;;;;;;;;;4411606;32;19992;-75
2023/02/13 16:44:55;;;;;;;;;;;;;;;;;;4413332;32;19974;-74
2023/02/13 16:47:20;;;;;;;;;;;;;;;;;;4410984;32;19965;-74
2023/02/13 16:49:45;;;;;;;;;;;;;;;;;;4412446;32;19941;-76
2023/02/13 16:52:11;;;;;;;;;;;;;;;;;;4412307;32;19948;-75
2023/02/13 16:54:37;;;;;;;;;;;;;;;;;;4413162;32;20012;-74
2023/02/13 16:57:02;;;;;;;;;;;;;;;;;;4415068;32;19987;-75
2023/02/13 16:59:27;;;;;;;;;;;;;;;;;;4414442;32;19961;-76
2023/02/13 17:01:52;;;;;;;;;;;;;;;;;;4414116;32;19949;-75
2023/02/13 17:04:17;;;;;;;;;;;;;;;;;;4414055;32;19963;-75
2023/02/13 17:06:42;;;;;;;;;;;;;;;;;;4412003;32;19989;-76
2023/02/13 17:09:07;;;;;;;;;;;;;;;;;;4413915;32;19948;-74
2023/02/13 17:11:32;;;;;;;;;;;;;;;;;;4415062;32;19992;-77
2023/02/13 17:13:57;;;;;;;;;;;;;;;;;;4415764;32;19945;-75